sensor_id;sensor_type;location;lat;lon;timestamp;temperature;humidity
582;DHT22;277;50.074;8.436;2022-10-04T00:00:22;10.50;99.90
582;DHT22;277;50.074;8.436;2022-10-04T00:02:55;10.50;99.90
582;DHT22;277;50.074;8.436;2022-10-04T00:05:25;10.40;99.90
582;DHT22;277;50.074;8.436;2022-10-04T00:07:54;10.40;99.90
582;DHT22;277;50.074;8.436;2022-10-04T00:10:23;10.20;99.90
582;DHT22;277;50.074;8.436;2022-10-04T00:12:51;10.20;99.90
582;DHT22;277;50.074;8.436;2022-10-04T00:15:23;10.10;99.90
582;DHT22;277;50.074;8.436;2022-10-04T00:17:58;10.10;99.90
582;DHT22;277;50.074;8.436;2022-10-04T00:23:26;10.20;99.90
582;DHT22;277;50.074;8.436;2022-10-04T00:25:55;10.30;99.90
582;DHT22;277;50.074;8.436;2022-10-04T00:28:27;10.40;99.90
582;DHT22;277;50.074;8.436;2022-10-04T00:31:10;10.50;99.90
582;DHT22;277;50.074;8.436;2022-10-04T00:33:39;10.40;99.90
582;DHT22;277;50.074;8.436;2022-10-04T00:39:00;10.40;99.90
582;DHT22;277;50.074;8.436;2022-10-04T00:41:28;10.40;99.90
582;DHT22;277;50.074;8.436;2022-10-04T00:44:00;10.40;99.90
582;DHT22;277;50.074;8.436;2022-10-04T00:46:31;10.40;99.90
582;DHT22;277;50.074;8.436;2022-10-04T00:49:00;10.30;99.90
582;DHT22;277;50.074;8.436;2022-10-04T00:51:30;10.20;99.90
582;DHT22;277;50.074;8.436;2022-10-04T00:54:01;10.20;99.90
582;DHT22;277;50.074;8.436;2022-10-04T00:56:31;10.20;99.90
582;DHT22;277;50.074;8.436;2022-10-04T00:59:03;10.20;99.90
582;DHT22;277;50.074;8.436;2022-10-04T01:01:33;10.10;99.90
582;DHT22;277;50.074;8.436;2022-10-04T01:04:03;10.10;99.90
582;DHT22;277;50.074;8.436;2022-10-04T01:06:32;10.10;99.90
582;DHT22;277;50.074;8.436;2022-10-04T01:09:01;10.10;99.90
582;DHT22;277;50.074;8.436;2022-10-04T01:11:33;10.00;99.90
582;DHT22;277;50.074;8.436;2022-10-04T01:14:03;9.90;99.90
582;DHT22;277;50.074;8.436;2022-10-04T01:16:34;10.00;99.90
582;DHT22;277;50.074;8.436;2022-10-04T01:21:44;9.60;99.90
582;DHT22;277;50.074;8.436;2022-10-04T01:24:18;9.50;99.90
582;DHT22;277;50.074;8.436;2022-10-04T01:26:47;9.40;99.90
582;DHT22;277;50.074;8.436;2022-10-04T01:29:16;9.20;99.90
582;DHT22;277;50.074;8.436;2022-10-04T01:31:44;9.20;99.90
582;DHT22;277;50.074;8.436;2022-10-04T01:34:13;9.10;99.90
582;DHT22;277;50.074;8.436;2022-10-04T01:36:42;9.20;99.90
582;DHT22;277;50.074;8.436;2022-10-04T01:39:13;9.30;99.90
582;DHT22;277;50.074;8.436;2022-10-04T01:41:43;9.40;99.90
582;DHT22;277;50.074;8.436;2022-10-04T01:44:16;9.60;99.90
582;DHT22;277;50.074;8.436;2022-10-04T01:46:45;9.70;99.90
582;DHT22;277;50.074;8.436;2022-10-04T01:49:15;9.80;99.90
582;DHT22;277;50.074;8.436;2022-10-04T01:51:46;9.80;99.90
582;DHT22;277;50.074;8.436;2022-10-04T01:54:17;9.90;99.90
582;DHT22;277;50.074;8.436;2022-10-04T01:56:48;9.80;99.90
582;DHT22;277;50.074;8.436;2022-10-04T01:59:18;9.80;99.90
582;DHT22;277;50.074;8.436;2022-10-04T02:01:49;9.90;99.90
582;DHT22;277;50.074;8.436;2022-10-04T02:04:18;9.90;99.90
582;DHT22;277;50.074;8.436;2022-10-04T02:06:49;9.90;99.90
582;DHT22;277;50.074;8.436;2022-10-04T02:09:19;9.80;99.90
582;DHT22;277;50.074;8.436;2022-10-04T02:11:51;9.70;99.90
582;DHT22;277;50.074;8.436;2022-10-04T02:14:20;9.60;99.90
582;DHT22;277;50.074;8.436;2022-10-04T02:16:49;9.40;99.90
582;DHT22;277;50.074;8.436;2022-10-04T02:19:19;9.40;99.90
582;DHT22;277;50.074;8.436;2022-10-04T02:21:48;9.30;99.90
582;DHT22;277;50.074;8.436;2022-10-04T02:24:16;9.30;99.90
582;DHT22;277;50.074;8.436;2022-10-04T02:26:47;9.20;99.90
582;DHT22;277;50.074;8.436;2022-10-04T02:29:17;8.90;99.90
582;DHT22;277;50.074;8.436;2022-10-04T02:31:45;8.80;99.90
582;DHT22;277;50.074;8.436;2022-10-04T02:34:31;8.80;99.90
582;DHT22;277;50.074;8.436;2022-10-04T02:37:00;8.80;99.90
582;DHT22;277;50.074;8.436;2022-10-04T02:39:30;8.70;99.90
582;DHT22;277;50.074;8.436;2022-10-04T02:42:00;8.80;99.90
582;DHT22;277;50.074;8.436;2022-10-04T02:44:32;8.90;99.90
582;DHT22;277;50.074;8.436;2022-10-04T02:47:05;9.00;99.90
582;DHT22;277;50.074;8.436;2022-10-04T02:49:34;9.10;99.90
582;DHT22;277;50.074;8.436;2022-10-04T02:52:04;9.10;99.90
582;DHT22;277;50.074;8.436;2022-10-04T02:54:35;9.00;99.90
582;DHT22;277;50.074;8.436;2022-10-04T02:57:03;9.20;99.90
582;DHT22;277;50.074;8.436;2022-10-04T02:59:33;9.30;99.90
582;DHT22;277;50.074;8.436;2022-10-04T03:02:01;9.20;99.90
582;DHT22;277;50.074;8.436;2022-10-04T03:04:30;9.20;99.90
582;DHT22;277;50.074;8.436;2022-10-04T03:06:58;9.10;99.90
582;DHT22;277;50.074;8.436;2022-10-04T03:09:27;8.90;99.90
582;DHT22;277;50.074;8.436;2022-10-04T03:11:55;9.00;99.90
582;DHT22;277;50.074;8.436;2022-10-04T03:14:24;9.00;99.90
582;DHT22;277;50.074;8.436;2022-10-04T03:16:54;9.10;99.90
582;DHT22;277;50.074;8.436;2022-10-04T03:19:23;9.10;99.90
582;DHT22;277;50.074;8.436;2022-10-04T03:21:53;9.10;99.90
582;DHT22;277;50.074;8.436;2022-10-04T03:24:23;9.20;99.90
582;DHT22;277;50.074;8.436;2022-10-04T03:26:52;9.30;99.90
582;DHT22;277;50.074;8.436;2022-10-04T03:29:22;9.40;99.90
582;DHT22;277;50.074;8.436;2022-10-04T03:31:50;9.50;99.90
582;DHT22;277;50.074;8.436;2022-10-04T03:34:20;9.40;99.90
582;DHT22;277;50.074;8.436;2022-10-04T03:36:50;9.20;99.90
582;DHT22;277;50.074;8.436;2022-10-04T03:39:25;9.10;99.90
582;DHT22;277;50.074;8.436;2022-10-04T03:41:54;9.00;99.90
582;DHT22;277;50.074;8.436;2022-10-04T03:44:23;8.90;99.90
582;DHT22;277;50.074;8.436;2022-10-04T03:46:51;9.00;99.90
582;DHT22;277;50.074;8.436;2022-10-04T03:49:24;9.00;99.90
582;DHT22;277;50.074;8.436;2022-10-04T03:51:56;9.10;99.90
582;DHT22;277;50.074;8.436;2022-10-04T03:54:24;9.10;99.90
582;DHT22;277;50.074;8.436;2022-10-04T03:56:53;9.20;99.90
582;DHT22;277;50.074;8.436;2022-10-04T03:59:22;9.20;99.90
582;DHT22;277;50.074;8.436;2022-10-04T04:01:55;9.20;99.90
582;DHT22;277;50.074;8.436;2022-10-04T04:04:31;9.30;99.90
582;DHT22;277;50.074;8.436;2022-10-04T04:07:01;9.40;99.90
582;DHT22;277;50.074;8.436;2022-10-04T04:09:34;9.40;99.90
582;DHT22;277;50.074;8.436;2022-10-04T04:12:03;9.40;99.90
582;DHT22;277;50.074;8.436;2022-10-04T04:14:32;9.50;99.90
582;DHT22;277;50.074;8.436;2022-10-04T04:17:15;9.50;99.90
582;DHT22;277;50.074;8.436;2022-10-04T04:19:45;9.30;99.90
582;DHT22;277;50.074;8.436;2022-10-04T04:22:13;9.30;99.90
582;DHT22;277;50.074;8.436;2022-10-04T04:24:42;9.30;99.90
582;DHT22;277;50.074;8.436;2022-10-04T04:27:10;9.30;99.90
582;DHT22;277;50.074;8.436;2022-10-04T04:29:42;9.40;99.90
582;DHT22;277;50.074;8.436;2022-10-04T04:32:12;9.40;99.90
582;DHT22;277;50.074;8.436;2022-10-04T04:34:49;9.40;99.90
582;DHT22;277;50.074;8.436;2022-10-04T04:37:18;9.40;99.90
582;DHT22;277;50.074;8.436;2022-10-04T04:39:47;9.30;99.90
582;DHT22;277;50.074;8.436;2022-10-04T04:42:18;9.30;99.90
582;DHT22;277;50.074;8.436;2022-10-04T04:44:47;9.10;99.90
582;DHT22;277;50.074;8.436;2022-10-04T04:47:20;8.90;99.90
582;DHT22;277;50.074;8.436;2022-10-04T04:49:50;8.90;99.90
582;DHT22;277;50.074;8.436;2022-10-04T04:52:18;8.90;99.90
582;DHT22;277;50.074;8.436;2022-10-04T04:54:47;8.80;99.90
582;DHT22;277;50.074;8.436;2022-10-04T04:57:15;8.80;99.90
582;DHT22;277;50.074;8.436;2022-10-04T04:59:44;8.70;99.90
582;DHT22;277;50.074;8.436;2022-10-04T05:02:25;8.80;99.90
582;DHT22;277;50.074;8.436;2022-10-04T05:07:48;9.00;99.90
582;DHT22;277;50.074;8.436;2022-10-04T05:10:20;9.10;99.90
582;DHT22;277;50.074;8.436;2022-10-04T05:12:48;9.20;99.90
582;DHT22;277;50.074;8.436;2022-10-04T05:15:17;9.30;99.90
582;DHT22;277;50.074;8.436;2022-10-04T05:17:45;9.40;99.90
582;DHT22;277;50.074;8.436;2022-10-04T05:20:12;9.40;99.90
582;DHT22;277;50.074;8.436;2022-10-04T05:22:42;9.20;99.90
582;DHT22;277;50.074;8.436;2022-10-04T05:25:14;9.00;99.90
582;DHT22;277;50.074;8.436;2022-10-04T05:27:44;8.80;99.90
582;DHT22;277;50.074;8.436;2022-10-04T05:30:13;8.70;99.90
582;DHT22;277;50.074;8.436;2022-10-04T05:32:47;8.50;99.90
582;DHT22;277;50.074;8.436;2022-10-04T05:35:18;8.30;99.90
582;DHT22;277;50.074;8.436;2022-10-04T05:37:57;8.20;99.90
582;DHT22;277;50.074;8.436;2022-10-04T05:40:31;8.10;99.90
582;DHT22;277;50.074;8.436;2022-10-04T05:43:00;8.00;99.90
582;DHT22;277;50.074;8.436;2022-10-04T05:45:29;8.00;99.90
582;DHT22;277;50.074;8.436;2022-10-04T05:47:58;7.90;99.90
582;DHT22;277;50.074;8.436;2022-10-04T05:50:28;7.80;99.90
582;DHT22;277;50.074;8.436;2022-10-04T05:53:06;7.80;99.90
582;DHT22;277;50.074;8.436;2022-10-04T05:55:37;7.80;99.90
582;DHT22;277;50.074;8.436;2022-10-04T05:58:21;7.80;99.90
582;DHT22;277;50.074;8.436;2022-10-04T06:00:57;7.80;99.90
582;DHT22;277;50.074;8.436;2022-10-04T06:03:35;7.80;99.90
582;DHT22;277;50.074;8.436;2022-10-04T06:06:06;7.80;99.90
582;DHT22;277;50.074;8.436;2022-10-04T06:08:42;7.90;99.90
582;DHT22;277;50.074;8.436;2022-10-04T06:11:19;7.90;99.90
582;DHT22;277;50.074;8.436;2022-10-04T06:16:35;7.90;99.90
582;DHT22;277;50.074;8.436;2022-10-04T06:19:11;7.90;99.90
582;DHT22;277;50.074;8.436;2022-10-04T06:21:43;8.00;99.90
582;DHT22;277;50.074;8.436;2022-10-04T06:24:22;8.10;99.90
582;DHT22;277;50.074;8.436;2022-10-04T06:26:55;8.10;99.90
582;DHT22;277;50.074;8.436;2022-10-04T06:29:25;8.20;99.90
582;DHT22;277;50.074;8.436;2022-10-04T06:32:07;8.30;99.90
582;DHT22;277;50.074;8.436;2022-10-04T06:37:31;8.30;99.90
582;DHT22;277;50.074;8.436;2022-10-04T06:42:56;8.30;99.90
582;DHT22;277;50.074;8.436;2022-10-04T06:45:35;8.30;99.90
582;DHT22;277;50.074;8.436;2022-10-04T06:48:21;8.40;99.90
582;DHT22;277;50.074;8.436;2022-10-04T06:50:53;8.40;99.90
582;DHT22;277;50.074;8.436;2022-10-04T06:53:23;8.40;99.90
582;DHT22;277;50.074;8.436;2022-10-04T06:56:04;8.40;99.90
582;DHT22;277;50.074;8.436;2022-10-04T06:58:40;8.50;99.90
582;DHT22;277;50.074;8.436;2022-10-04T07:01:14;8.50;99.90
582;DHT22;277;50.074;8.436;2022-10-04T07:03:45;8.60;99.90
582;DHT22;277;50.074;8.436;2022-10-04T07:06:19;8.70;99.90
582;DHT22;277;50.074;8.436;2022-10-04T07:08:50;8.80;99.90
582;DHT22;277;50.074;8.436;2022-10-04T07:11:19;8.90;99.90
582;DHT22;277;50.074;8.436;2022-10-04T07:13:52;9.00;99.90
582;DHT22;277;50.074;8.436;2022-10-04T07:16:27;9.20;99.90
582;DHT22;277;50.074;8.436;2022-10-04T07:18:58;9.20;99.90
582;DHT22;277;50.074;8.436;2022-10-04T07:21:32;9.40;99.90
582;DHT22;277;50.074;8.436;2022-10-04T07:24:00;9.50;99.90
582;DHT22;277;50.074;8.436;2022-10-04T07:26:31;9.60;99.90
582;DHT22;277;50.074;8.436;2022-10-04T07:29:04;9.70;99.90
582;DHT22;277;50.074;8.436;2022-10-04T07:31:50;9.80;99.90
582;DHT22;277;50.074;8.436;2022-10-04T07:34:23;9.90;99.90
582;DHT22;277;50.074;8.436;2022-10-04T07:36:53;10.00;99.90
582;DHT22;277;50.074;8.436;2022-10-04T07:39:22;10.00;99.90
582;DHT22;277;50.074;8.436;2022-10-04T07:41:51;10.10;99.90
582;DHT22;277;50.074;8.436;2022-10-04T07:44:28;10.20;99.90
582;DHT22;277;50.074;8.436;2022-10-04T07:46:58;10.30;99.90
582;DHT22;277;50.074;8.436;2022-10-04T07:49:28;10.40;99.90
582;DHT22;277;50.074;8.436;2022-10-04T07:52:19;10.50;99.90
582;DHT22;277;50.074;8.436;2022-10-04T07:54:53;10.60;99.90
582;DHT22;277;50.074;8.436;2022-10-04T07:57:26;10.80;99.90
582;DHT22;277;50.074;8.436;2022-10-04T07:59:59;10.80;99.90
582;DHT22;277;50.074;8.436;2022-10-04T08:02:31;10.90;99.90
582;DHT22;277;50.074;8.436;2022-10-04T08:05:10;11.00;99.90
582;DHT22;277;50.074;8.436;2022-10-04T08:07:42;11.10;99.90
582;DHT22;277;50.074;8.436;2022-10-04T08:10:13;11.40;99.90
582;DHT22;277;50.074;8.436;2022-10-04T08:12:45;11.50;99.90
582;DHT22;277;50.074;8.436;2022-10-04T08:18:08;11.70;99.90
582;DHT22;277;50.074;8.436;2022-10-04T08:20:46;11.90;99.90
582;DHT22;277;50.074;8.436;2022-10-04T08:23:18;12.10;99.90
582;DHT22;277;50.074;8.436;2022-10-04T08:25:49;12.20;99.90
582;DHT22;277;50.074;8.436;2022-10-04T08:28:23;12.30;99.90
582;DHT22;277;50.074;8.436;2022-10-04T08:31:16;12.50;99.90
582;DHT22;277;50.074;8.436;2022-10-04T08:34:03;12.70;99.90
582;DHT22;277;50.074;8.436;2022-10-04T08:36:41;12.80;99.90
582;DHT22;277;50.074;8.436;2022-10-04T08:39:16;12.90;99.90
582;DHT22;277;50.074;8.436;2022-10-04T08:47:25;13.00;99.90
582;DHT22;277;50.074;8.436;2022-10-04T08:50:03;13.00;99.90
582;DHT22;277;50.074;8.436;2022-10-04T08:52:50;13.20;99.90
582;DHT22;277;50.074;8.436;2022-10-04T08:58:20;13.50;99.90
582;DHT22;277;50.074;8.436;2022-10-04T09:00:55;13.60;99.90
582;DHT22;277;50.074;8.436;2022-10-04T09:06:19;14.10;99.90
582;DHT22;277;50.074;8.436;2022-10-04T09:09:03;14.30;99.90
582;DHT22;277;50.074;8.436;2022-10-04T09:11:46;14.50;99.90
582;DHT22;277;50.074;8.436;2022-10-04T09:17:15;14.50;99.90
582;DHT22;277;50.074;8.436;2022-10-04T09:19:53;14.60;99.90
582;DHT22;277;50.074;8.436;2022-10-04T09:22:45;14.80;99.90
582;DHT22;277;50.074;8.436;2022-10-04T09:25:31;15.10;99.90
582;DHT22;277;50.074;8.436;2022-10-04T09:28:08;15.30;99.90
582;DHT22;277;50.074;8.436;2022-10-04T09:30:42;15.70;99.90
582;DHT22;277;50.074;8.436;2022-10-04T09:33:15;15.80;99.90
582;DHT22;277;50.074;8.436;2022-10-04T09:35:51;16.10;99.90
582;DHT22;277;50.074;8.436;2022-10-04T09:38:27;16.20;99.90
582;DHT22;277;50.074;8.436;2022-10-04T09:41:06;16.40;99.90
582;DHT22;277;50.074;8.436;2022-10-04T09:46:39;16.80;99.90
582;DHT22;277;50.074;8.436;2022-10-04T09:49:21;17.00;99.90
582;DHT22;277;50.074;8.436;2022-10-04T09:52:04;17.00;99.90
582;DHT22;277;50.074;8.436;2022-10-04T09:54:49;17.10;99.90
582;DHT22;277;50.074;8.436;2022-10-04T09:57:21;17.50;99.90
582;DHT22;277;50.074;8.436;2022-10-04T09:59:57;17.70;99.90
582;DHT22;277;50.074;8.436;2022-10-04T10:02:36;17.80;99.90
582;DHT22;277;50.074;8.436;2022-10-04T10:07:58;18.10;99.90
582;DHT22;277;50.074;8.436;2022-10-04T10:10:32;18.10;99.90
582;DHT22;277;50.074;8.436;2022-10-04T10:13:27;17.90;99.90
582;DHT22;277;50.074;8.436;2022-10-04T10:16:09;17.70;99.90
582;DHT22;277;50.074;8.436;2022-10-04T10:18:42;17.50;99.90
582;DHT22;277;50.074;8.436;2022-10-04T10:21:33;17.50;99.90
582;DHT22;277;50.074;8.436;2022-10-04T10:24:18;17.50;99.90
582;DHT22;277;50.074;8.436;2022-10-04T10:26:54;17.60;99.90
582;DHT22;277;50.074;8.436;2022-10-04T10:29:33;17.60;99.90
582;DHT22;277;50.074;8.436;2022-10-04T10:32:18;17.30;99.90
582;DHT22;277;50.074;8.436;2022-10-04T10:37:40;17.10;99.90
582;DHT22;277;50.074;8.436;2022-10-04T10:40:16;17.30;99.90
582;DHT22;277;50.074;8.436;2022-10-04T10:42:56;17.50;99.90
582;DHT22;277;50.074;8.436;2022-10-04T10:45:33;17.70;99.90
582;DHT22;277;50.074;8.436;2022-10-04T10:48:04;17.90;99.90
582;DHT22;277;50.074;8.436;2022-10-04T10:50:46;18.20;99.90
582;DHT22;277;50.074;8.436;2022-10-04T10:53:35;18.50;99.90
582;DHT22;277;50.074;8.436;2022-10-04T10:59:03;19.30;99.90
582;DHT22;277;50.074;8.436;2022-10-04T11:01:42;19.60;99.90
582;DHT22;277;50.074;8.436;2022-10-04T11:04:21;20.10;99.90
582;DHT22;277;50.074;8.436;2022-10-04T11:07:02;20.60;99.90
582;DHT22;277;50.074;8.436;2022-10-04T11:09:41;21.10;99.90
582;DHT22;277;50.074;8.436;2022-10-04T11:12:17;21.40;99.90
582;DHT22;277;50.074;8.436;2022-10-04T11:15:29;21.40;99.90
582;DHT22;277;50.074;8.436;2022-10-04T11:18:04;21.50;99.90
582;DHT22;277;50.074;8.436;2022-10-04T11:20:48;21.30;99.90
582;DHT22;277;50.074;8.436;2022-10-04T11:23:29;21.40;99.90
582;DHT22;277;50.074;8.436;2022-10-04T11:26:15;21.70;99.90
582;DHT22;277;50.074;8.436;2022-10-04T11:28:49;21.50;99.90
582;DHT22;277;50.074;8.436;2022-10-04T11:31:42;21.80;99.90
582;DHT22;277;50.074;8.436;2022-10-04T11:34:24;22.00;99.90
582;DHT22;277;50.074;8.436;2022-10-04T11:37:03;22.30;99.90
582;DHT22;277;50.074;8.436;2022-10-04T11:39:47;22.40;99.90
582;DHT22;277;50.074;8.436;2022-10-04T11:42:25;22.50;99.90
582;DHT22;277;50.074;8.436;2022-10-04T11:45:01;22.50;99.90
582;DHT22;277;50.074;8.436;2022-10-04T11:47:37;22.30;99.90
582;DHT22;277;50.074;8.436;2022-10-04T11:53:02;22.60;99.90
582;DHT22;277;50.074;8.436;2022-10-04T11:58:23;22.20;99.90
582;DHT22;277;50.074;8.436;2022-10-04T12:01:01;22.50;99.90
582;DHT22;277;50.074;8.436;2022-10-04T12:06:27;23.20;99.90
582;DHT22;277;50.074;8.436;2022-10-04T12:09:02;23.30;99.90
582;DHT22;277;50.074;8.436;2022-10-04T12:11:45;23.50;99.90
582;DHT22;277;50.074;8.436;2022-10-04T12:14:36;23.80;99.90
582;DHT22;277;50.074;8.436;2022-10-04T12:17:20;23.90;99.90
582;DHT22;277;50.074;8.436;2022-10-04T12:19:56;23.60;99.70
582;DHT22;277;50.074;8.436;2022-10-04T12:28:22;23.70;99.90
582;DHT22;277;50.074;8.436;2022-10-04T12:30:56;23.60;99.90
582;DHT22;277;50.074;8.436;2022-10-04T12:33:29;23.50;99.90
582;DHT22;277;50.074;8.436;2022-10-04T12:36:02;23.60;99.90
582;DHT22;277;50.074;8.436;2022-10-04T12:38:39;24.10;99.90
582;DHT22;277;50.074;8.436;2022-10-04T12:41:14;24.50;99.60
582;DHT22;277;50.074;8.436;2022-10-04T12:43:50;25.00;99.30
582;DHT22;277;50.074;8.436;2022-10-04T12:46:25;25.30;98.90
582;DHT22;277;50.074;8.436;2022-10-04T12:49:02;25.50;98.40
582;DHT22;277;50.074;8.436;2022-10-04T12:51:34;25.80;97.40
582;DHT22;277;50.074;8.436;2022-10-04T12:54:09;25.90;97.10
582;DHT22;277;50.074;8.436;2022-10-04T12:56:42;25.80;96.90
582;DHT22;277;50.074;8.436;2022-10-04T13:02:06;25.60;96.60
582;DHT22;277;50.074;8.436;2022-10-04T13:04:44;25.10;97.50
582;DHT22;277;50.074;8.436;2022-10-04T13:07:18;25.10;96.70
582;DHT22;277;50.074;8.436;2022-10-04T13:09:55;24.90;96.90
582;DHT22;277;50.074;8.436;2022-10-04T13:13:01;24.90;97.50
582;DHT22;277;50.074;8.436;2022-10-04T13:15:36;24.50;98.20
582;DHT22;277;50.074;8.436;2022-10-04T13:18:28;24.60;97.80
582;DHT22;277;50.074;8.436;2022-10-04T13:20:59;25.10;98.10
582;DHT22;277;50.074;8.436;2022-10-04T13:23:34;25.40;97.90
582;DHT22;277;50.074;8.436;2022-10-04T13:26:12;25.60;97.00
582;DHT22;277;50.074;8.436;2022-10-04T13:28:44;25.10;96.40
582;DHT22;277;50.074;8.436;2022-10-04T13:31:14;25.00;97.00
582;DHT22;277;50.074;8.436;2022-10-04T13:33:52;25.00;96.40
582;DHT22;277;50.074;8.436;2022-10-04T13:36:22;25.10;96.50
582;DHT22;277;50.074;8.436;2022-10-04T13:39:02;25.40;96.70
582;DHT22;277;50.074;8.436;2022-10-04T13:41:42;25.00;96.10
582;DHT22;277;50.074;8.436;2022-10-04T13:44:19;24.10;97.10
582;DHT22;277;50.074;8.436;2022-10-04T13:46:58;23.80;97.40
582;DHT22;277;50.074;8.436;2022-10-04T13:49:35;23.90;97.70
582;DHT22;277;50.074;8.436;2022-10-04T13:52:10;24.20;97.80
582;DHT22;277;50.074;8.436;2022-10-04T13:55:00;24.20;97.60
582;DHT22;277;50.074;8.436;2022-10-04T13:57:55;24.20;97.80
582;DHT22;277;50.074;8.436;2022-10-04T14:00:31;24.10;97.50
582;DHT22;277;50.074;8.436;2022-10-04T14:03:05;24.10;97.50
582;DHT22;277;50.074;8.436;2022-10-04T14:05:52;24.20;97.40
582;DHT22;277;50.074;8.436;2022-10-04T14:08:35;24.30;97.30
582;DHT22;277;50.074;8.436;2022-10-04T14:11:11;24.30;97.60
582;DHT22;277;50.074;8.436;2022-10-04T14:13:51;24.60;97.80
582;DHT22;277;50.074;8.436;2022-10-04T14:24:51;22.50;98.50
582;DHT22;277;50.074;8.436;2022-10-04T14:27:34;22.00;99.50
582;DHT22;277;50.074;8.436;2022-10-04T14:30:15;21.50;99.90
582;DHT22;277;50.074;8.436;2022-10-04T14:35:27;21.00;99.90
582;DHT22;277;50.074;8.436;2022-10-04T14:38:11;20.90;99.90
582;DHT22;277;50.074;8.436;2022-10-04T14:44:01;21.20;99.90
582;DHT22;277;50.074;8.436;2022-10-04T14:46:33;21.60;99.90
582;DHT22;277;50.074;8.436;2022-10-04T14:49:06;22.00;99.90
582;DHT22;277;50.074;8.436;2022-10-04T14:51:41;22.30;99.90
582;DHT22;277;50.074;8.436;2022-10-04T14:54:11;22.50;99.90
582;DHT22;277;50.074;8.436;2022-10-04T14:56:44;22.60;99.90
582;DHT22;277;50.074;8.436;2022-10-04T14:59:26;22.60;99.90
582;DHT22;277;50.074;8.436;2022-10-04T15:04:59;22.90;99.90
582;DHT22;277;50.074;8.436;2022-10-04T15:07:31;22.40;99.90
582;DHT22;277;50.074;8.436;2022-10-04T15:10:03;22.10;99.90
582;DHT22;277;50.074;8.436;2022-10-04T15:12:40;21.70;99.90
582;DHT22;277;50.074;8.436;2022-10-04T15:15:33;21.00;99.90
582;DHT22;277;50.074;8.436;2022-10-04T15:18:03;20.40;99.90
582;DHT22;277;50.074;8.436;2022-10-04T15:20:33;20.10;99.90
582;DHT22;277;50.074;8.436;2022-10-04T15:23:08;19.80;99.90
582;DHT22;277;50.074;8.436;2022-10-04T15:25:39;19.60;99.90
582;DHT22;277;50.074;8.436;2022-10-04T15:28:10;19.40;99.90
582;DHT22;277;50.074;8.436;2022-10-04T15:30:47;19.20;99.90
582;DHT22;277;50.074;8.436;2022-10-04T15:33:23;19.00;99.90
582;DHT22;277;50.074;8.436;2022-10-04T15:38:43;18.80;99.90
582;DHT22;277;50.074;8.436;2022-10-04T15:41:14;18.60;99.90
582;DHT22;277;50.074;8.436;2022-10-04T15:43:43;18.60;99.90
582;DHT22;277;50.074;8.436;2022-10-04T15:46:26;18.60;99.90
582;DHT22;277;50.074;8.436;2022-10-04T15:49:03;18.50;99.90
582;DHT22;277;50.074;8.436;2022-10-04T15:51:39;18.40;99.90
582;DHT22;277;50.074;8.436;2022-10-04T15:54:13;18.30;99.90
582;DHT22;277;50.074;8.436;2022-10-04T15:56:47;18.20;99.90
582;DHT22;277;50.074;8.436;2022-10-04T15:59:25;18.10;99.90
582;DHT22;277;50.074;8.436;2022-10-04T16:02:02;18.10;99.90
582;DHT22;277;50.074;8.436;2022-10-04T16:04:44;18.10;99.90
582;DHT22;277;50.074;8.436;2022-10-04T16:07:19;17.90;99.90
582;DHT22;277;50.074;8.436;2022-10-04T16:09:51;18.00;99.90
582;DHT22;277;50.074;8.436;2022-10-04T16:12:25;17.90;99.90
582;DHT22;277;50.074;8.436;2022-10-04T16:14:58;17.90;99.90
582;DHT22;277;50.074;8.436;2022-10-04T16:17:41;17.90;99.90
582;DHT22;277;50.074;8.436;2022-10-04T16:20:25;17.80;99.90
582;DHT22;277;50.074;8.436;2022-10-04T16:25:41;17.80;99.90
582;DHT22;277;50.074;8.436;2022-10-04T16:28:11;17.70;99.90
582;DHT22;277;50.074;8.436;2022-10-04T16:30:41;17.70;99.90
582;DHT22;277;50.074;8.436;2022-10-04T16:33:23;17.60;99.90
582;DHT22;277;50.074;8.436;2022-10-04T16:36:01;17.40;99.90
582;DHT22;277;50.074;8.436;2022-10-04T16:38:32;17.30;99.90
582;DHT22;277;50.074;8.436;2022-10-04T16:41:05;17.20;99.90
582;DHT22;277;50.074;8.436;2022-10-04T16:43:36;17.10;99.90
582;DHT22;277;50.074;8.436;2022-10-04T16:46:08;16.90;99.90
582;DHT22;277;50.074;8.436;2022-10-04T16:48:47;16.80;99.90
582;DHT22;277;50.074;8.436;2022-10-04T16:54:00;16.50;99.90
582;DHT22;277;50.074;8.436;2022-10-04T16:57:08;16.40;99.90
582;DHT22;277;50.074;8.436;2022-10-04T17:02:12;16.30;99.90
582;DHT22;277;50.074;8.436;2022-10-04T17:04:53;16.10;99.90
582;DHT22;277;50.074;8.436;2022-10-04T17:07:31;16.00;99.90
582;DHT22;277;50.074;8.436;2022-10-04T17:10:04;15.90;99.90
582;DHT22;277;50.074;8.436;2022-10-04T17:12:42;15.80;99.90
582;DHT22;277;50.074;8.436;2022-10-04T17:15:22;15.70;99.90
582;DHT22;277;50.074;8.436;2022-10-04T17:17:55;15.60;99.90
582;DHT22;277;50.074;8.436;2022-10-04T17:20:25;15.50;99.90
582;DHT22;277;50.074;8.436;2022-10-04T17:23:01;15.40;99.90
582;DHT22;277;50.074;8.436;2022-10-04T17:25:36;15.30;99.90
582;DHT22;277;50.074;8.436;2022-10-04T17:28:10;15.20;99.90
582;DHT22;277;50.074;8.436;2022-10-04T17:30:41;15.10;99.90
582;DHT22;277;50.074;8.436;2022-10-04T17:35:59;14.90;99.90
582;DHT22;277;50.074;8.436;2022-10-04T17:38:29;14.80;99.90
582;DHT22;277;50.074;8.436;2022-10-04T17:41:02;14.70;99.90
582;DHT22;277;50.074;8.436;2022-10-04T17:43:32;14.60;99.90
582;DHT22;277;50.074;8.436;2022-10-04T17:46:11;14.50;99.90
582;DHT22;277;50.074;8.436;2022-10-04T17:48:43;14.50;99.90
582;DHT22;277;50.074;8.436;2022-10-04T17:51:37;14.40;99.90
582;DHT22;277;50.074;8.436;2022-10-04T17:54:23;14.30;99.90
582;DHT22;277;50.074;8.436;2022-10-04T17:57:11;14.30;99.90
582;DHT22;277;50.074;8.436;2022-10-04T17:59:41;14.20;99.90
582;DHT22;277;50.074;8.436;2022-10-04T18:02:10;14.10;99.90
582;DHT22;277;50.074;8.436;2022-10-04T18:04:44;14.00;99.90
582;DHT22;277;50.074;8.436;2022-10-04T18:07:15;14.00;99.90
582;DHT22;277;50.074;8.436;2022-10-04T18:09:46;13.90;99.90
582;DHT22;277;50.074;8.436;2022-10-04T18:12:22;13.90;99.90
582;DHT22;277;50.074;8.436;2022-10-04T18:14:54;13.90;99.90
582;DHT22;277;50.074;8.436;2022-10-04T18:17:25;13.70;99.90
582;DHT22;277;50.074;8.436;2022-10-04T18:19:57;13.70;99.90
582;DHT22;277;50.074;8.436;2022-10-04T18:22:28;13.60;99.90
582;DHT22;277;50.074;8.436;2022-10-04T18:25:11;13.50;99.90
582;DHT22;277;50.074;8.436;2022-10-04T18:27:46;13.50;99.90
582;DHT22;277;50.074;8.436;2022-10-04T18:30:15;13.40;99.90
582;DHT22;277;50.074;8.436;2022-10-04T18:32:44;13.40;99.90
582;DHT22;277;50.074;8.436;2022-10-04T18:35:18;13.30;99.90
582;DHT22;277;50.074;8.436;2022-10-04T18:37:48;13.20;99.90
582;DHT22;277;50.074;8.436;2022-10-04T18:40:17;13.30;99.90
582;DHT22;277;50.074;8.436;2022-10-04T18:42:49;13.20;99.90
582;DHT22;277;50.074;8.436;2022-10-04T18:45:19;13.20;99.90
582;DHT22;277;50.074;8.436;2022-10-04T18:47:48;13.10;99.90
582;DHT22;277;50.074;8.436;2022-10-04T18:50:29;13.10;99.90
582;DHT22;277;50.074;8.436;2022-10-04T18:53:03;13.00;99.90
582;DHT22;277;50.074;8.436;2022-10-04T18:55:37;13.00;99.90
582;DHT22;277;50.074;8.436;2022-10-04T18:58:09;13.00;99.90
582;DHT22;277;50.074;8.436;2022-10-04T19:01:04;12.90;99.90
582;DHT22;277;50.074;8.436;2022-10-04T19:03:55;12.90;99.90
582;DHT22;277;50.074;8.436;2022-10-04T19:06:26;12.80;99.90